createdAt,value
2022-09-02T00:05:57.735Z,77.88
2022-09-02T00:12:22.065Z,78.25
2022-09-02T00:18:47.040Z,78.47
2022-09-02T00:25:10.109Z,78.62
2022-09-02T00:31:37.566Z,78.79
2022-09-02T00:38:03.940Z,79.28
2022-09-02T00:44:29.364Z,79.31
2022-09-02T00:50:46.756Z,79.84
2022-09-02T00:57:12.127Z,79.93
2022-09-02T01:03:43.324Z,80.19
2022-09-02T01:10:07.652Z,80.48
2022-09-02T01:16:32.043Z,80.64
2022-09-02T01:22:58.896Z,80.79
2022-09-02T01:29:23.054Z,80.98
2022-09-02T01:35:50.463Z,81.40
2022-09-02T01:42:22.755Z,82.14
2022-09-02T01:48:46.897Z,82.73
2022-09-02T01:55:12.014Z,83.21
2022-09-02T02:01:38.453Z,83.70
2022-09-02T02:08:03.789Z,84.55
2022-09-02T02:14:30.257Z,84.69
2022-09-02T02:20:56.313Z,84.67
2022-09-02T02:27:11.384Z,85.03
2022-09-02T02:33:44.012Z,85.20
2022-09-02T02:40:09.431Z,85.23
2022-09-02T02:46:33.791Z,86.01
2022-09-02T02:53:00.428Z,86.28
2022-09-02T02:59:24.673Z,86.63
2022-09-02T03:05:46.215Z,86.45
2022-09-02T03:12:11.720Z,86.42
2022-09-02T03:18:36.928Z,86.84
2022-09-02T03:25:02.377Z,87.38
2022-09-02T03:31:28.021Z,87.22
2022-09-02T03:37:52.822Z,87.73
2022-09-02T03:44:17.963Z,88.24
2022-09-02T03:50:45.296Z,88.74
2022-09-02T03:57:09.627Z,89.44
2022-09-02T04:03:34.997Z,89.57
2022-09-02T04:10:00.433Z,89.75
2022-09-02T04:16:27.900Z,89.75
2022-09-02T04:22:44.944Z,89.77
2022-09-02T04:29:09.965Z,89.49
2022-09-02T04:35:17.956Z,89.59
2022-09-02T04:41:41.992Z,89.22
2022-09-02T04:48:06.681Z,89.90
2022-09-02T04:54:32.021Z,90.03
2022-09-02T05:00:57.683Z,90.08
2022-09-02T05:07:23.806Z,90.44
2022-09-02T05:13:27.660Z,91.06
2022-09-02T05:19:53.746Z,91.14
2022-09-02T05:26:18.010Z,91.28
2022-09-02T05:32:43.393Z,90.86
2022-09-02T05:38:59.183Z,91.59
2022-09-02T05:45:24.515Z,91.28
2022-09-02T05:51:49.928Z,90.01
2022-09-02T05:58:14.236Z,88.55
2022-09-02T06:04:31.769Z,87.48
2022-09-02T06:10:59.920Z,87.04
2022-09-02T06:17:25.427Z,87.06
2022-09-02T06:23:48.643Z,85.57
2022-09-02T06:29:54.751Z,85.40
2022-09-02T06:35:59.180Z,85.11
2022-09-02T06:41:48.826Z,84.30
2022-09-02T06:48:13.207Z,84.13
2022-09-02T06:54:39.984Z,83.57
2022-09-02T07:00:54.309Z,83.58
2022-09-02T07:07:25.732Z,82.69
2022-09-02T07:13:51.052Z,82.71
2022-09-02T07:20:16.491Z,82.11
2022-09-02T07:26:44.380Z,81.64
2022-09-02T07:33:02.363Z,80.65
2022-09-02T07:39:22.576Z,80.52
2022-09-02T07:45:47.025Z,79.15
2022-09-02T07:51:53.698Z,78.27
2022-09-02T07:58:20.755Z,76.95
2022-09-02T08:04:46.508Z,76.63
2022-09-02T08:11:11.199Z,75.57
2022-09-02T08:17:34.316Z,73.93
2022-09-02T08:23:40.300Z,73.91
2022-09-02T08:30:10.966Z,73.24
2022-09-02T08:36:36.281Z,71.39
2022-09-02T08:43:16.156Z,71.35
2022-09-02T08:49:50.306Z,70.24
2022-09-02T08:56:28.588Z,69.12
2022-09-02T09:02:59.894Z,69.17
2022-09-02T09:09:51.590Z,67.67
2022-09-02T09:16:30.245Z,67.38
2022-09-02T09:22:54.381Z,67.51
2022-09-02T09:29:11.449Z,66.58
2022-09-02T09:35:50.174Z,65.88
2022-09-02T09:42:04.602Z,64.60
2022-09-02T09:48:28.924Z,64.05
2022-09-02T09:54:56.120Z,63.00
2022-09-02T10:01:20.533Z,62.72
2022-09-02T10:07:45.328Z,60.92
2022-09-02T10:14:26.547Z,60.79
2022-09-02T10:21:16.642Z,59.11
2022-09-02T10:27:48.977Z,58.38
2022-09-02T10:34:19.264Z,58.67
2022-09-02T10:40:58.737Z,57.92
2022-09-02T10:47:29.404Z,57.16
2022-09-02T10:53:48.026Z,56.27
2022-09-02T11:00:08.972Z,55.80
2022-09-02T11:06:26.213Z,55.45
2022-09-02T11:12:36.959Z,54.95
2022-09-02T11:18:36.970Z,53.58
2022-09-02T11:24:27.703Z,53.16
2022-09-02T11:30:32.344Z,53.12
2022-09-02T11:36:47.145Z,51.55
2022-09-02T11:43:03.029Z,51.38
2022-09-02T11:49:29.075Z,50.26
2022-09-02T11:56:02.792Z,48.67
2022-09-02T12:02:32.983Z,48.38
2022-09-02T12:09:03.198Z,48.76
2022-09-02T12:15:27.880Z,47.64
2022-09-02T12:22:01.480Z,47.25
2022-09-02T12:28:23.889Z,46.52
2022-09-02T12:35:02.232Z,45.87
2022-09-02T12:41:30.520Z,45.98
2022-09-02T12:47:54.804Z,45.67
2022-09-02T12:54:24.978Z,44.80
2022-09-02T13:00:49.553Z,45.22
2022-09-02T13:07:33.294Z,45.30
2022-09-02T13:13:46.750Z,45.59
2022-09-02T13:20:29.847Z,45.97
2022-09-02T13:27:13.900Z,45.65
2022-09-02T13:33:47.808Z,45.15
2022-09-02T13:40:24.874Z,44.56
2022-09-02T13:46:53.461Z,45.21
2022-09-02T13:53:53.762Z,45.39
2022-09-02T14:00:28.974Z,45.39
2022-09-02T14:06:45.583Z,45.27
2022-09-02T14:13:05.359Z,45.68
2022-09-02T14:19:49.173Z,45.94
2022-09-02T14:26:17.822Z,46.23
2022-09-02T14:32:56.369Z,46.03
2022-09-02T14:39:22.271Z,45.73
2022-09-02T14:45:31.467Z,45.98
2022-09-02T14:51:59.190Z,46.42
2022-09-02T14:58:32.303Z,46.05
2022-09-02T15:04:58.528Z,46.17
2022-09-02T15:11:30.621Z,46.07
2022-09-02T15:17:53.816Z,46.22
2022-09-02T15:24:21.131Z,46.09
2022-09-02T15:30:41.108Z,46.46
2022-09-02T15:37:14.123Z,46.90
2022-09-02T15:43:44.122Z,46.58
2022-09-02T15:50:10.787Z,46.67
2022-09-02T15:56:38.733Z,47.11
2022-09-02T16:03:04.002Z,47.45
2022-09-02T16:09:32.990Z,47.54
2022-09-02T16:15:49.161Z,47.59
2022-09-02T16:22:15.214Z,47.48
2022-09-02T16:28:28.747Z,47.72
2022-09-02T16:34:56.406Z,47.67
2022-09-02T16:41:00.608Z,48.04
2022-09-02T16:47:06.581Z,48.33
2022-09-02T16:53:31.546Z,48.81
2022-09-02T16:59:48.330Z,48.96
2022-09-02T17:05:53.927Z,49.26
2022-09-02T17:12:09.746Z,49.73
2022-09-02T17:18:19.080Z,49.91
2022-09-02T17:24:43.509Z,50.28
2022-09-02T17:31:08.073Z,50.57
2022-09-02T17:37:43.713Z,51.10
2022-09-02T17:44:09.442Z,51.37
2022-09-02T17:50:36.946Z,51.79
2022-09-02T17:56:59.855Z,52.29
2022-09-02T18:03:23.877Z,52.92
2022-09-02T18:09:36.815Z,53.06
2022-09-02T18:16:03.678Z,53.38
2022-09-02T18:22:36.135Z,53.75
2022-09-02T18:29:21.520Z,54.32
2022-09-02T18:36:09.676Z,54.73
2022-09-02T18:42:48.822Z,55.47
2022-09-02T18:49:18.731Z,55.85
2022-09-02T18:56:01.626Z,56.41
2022-09-02T19:02:31.017Z,56.83
2022-09-02T19:09:01.051Z,57.38
2022-09-02T19:15:36.828Z,57.68
2022-09-02T19:22:04.728Z,58.04
2022-09-02T19:28:30.784Z,58.19
2022-09-02T19:34:44.246Z,58.48
2022-09-02T19:41:09.744Z,58.74
2022-09-02T19:54:30.423Z,59.41
2022-09-02T20:00:56.371Z,59.71
2022-09-02T20:07:23.651Z,59.96
2022-09-02T20:13:50.113Z,60.18
2022-09-02T20:20:28.307Z,60.54
2022-09-02T20:26:54.829Z,60.89
2022-09-02T20:33:33.452Z,61.08
2022-09-02T20:40:05.086Z,61.16
2022-09-02T20:46:46.540Z,61.24
2022-09-02T20:53:10.891Z,61.38
2022-09-02T20:59:51.514Z,61.29
2022-09-02T21:06:22.791Z,61.35
2022-09-02T21:13:18.696Z,61.43
2022-09-02T21:20:01.734Z,61.56
2022-09-02T21:26:28.932Z,61.70
2022-09-02T21:33:12.135Z,61.90
2022-09-02T21:39:28.099Z,62.05
2022-09-02T21:46:05.732Z,62.10
2022-09-02T21:52:38.773Z,62.30
2022-09-02T21:59:13.661Z,62.42
2022-09-02T22:12:22.490Z,62.82
2022-09-02T22:18:54.212Z,62.95
2022-09-02T22:25:21.641Z,62.98
2022-09-02T22:31:53.805Z,63.30
2022-09-02T22:38:38.869Z,63.38
2022-09-02T22:45:29.573Z,63.45
2022-09-02T22:52:11.475Z,63.31
2022-09-02T22:58:51.133Z,63.32
2022-09-02T23:05:18.636Z,63.36
2022-09-02T23:11:44.807Z,63.31
2022-09-02T23:18:21.427Z,63.48
2022-09-02T23:25:02.341Z,63.72
2022-09-02T23:31:38.432Z,63.82
2022-09-02T23:38:07.306Z,63.87
2022-09-02T23:44:43.288Z,64.06
2022-09-02T23:51:13.548Z,64.18
2022-09-02T23:58:00.392Z,64.14
